sensor_id;sensor_type;location;lat;lon;timestamp;P1;durP1;ratioP1;P2;durP2;ratioP2
11398;SDS011;5755;48.116;11.608;2022-12-29T00:01:25;1.67;;;1.43;;
11398;SDS011;5755;48.116;11.608;2022-12-29T00:03:52;3.23;;;2.17;;
11398;SDS011;5755;48.116;11.608;2022-12-29T00:06:20;2.63;;;1.77;;
11398;SDS011;5755;48.116;11.608;2022-12-29T00:08:47;1.77;;;1.60;;
11398;SDS011;5755;48.116;11.608;2022-12-29T00:11:14;1.67;;;1.57;;
11398;SDS011;5755;48.116;11.608;2022-12-29T00:13:43;2.20;;;1.20;;
11398;SDS011;5755;48.116;11.608;2022-12-29T00:16:27;2.60;;;1.50;;
11398;SDS011;5755;48.116;11.608;2022-12-29T00:18:55;2.13;;;1.70;;
11398;SDS011;5755;48.116;11.608;2022-12-29T00:21:23;1.47;;;1.30;;
11398;SDS011;5755;48.116;11.608;2022-12-29T00:24:09;1.70;;;1.50;;
11398;SDS011;5755;48.116;11.608;2022-12-29T00:26:57;2.10;;;1.70;;
11398;SDS011;5755;48.116;11.608;2022-12-29T00:29:52;1.20;;;1.10;;
11398;SDS011;5755;48.116;11.608;2022-12-29T00:32:36;1.60;;;1.40;;
11398;SDS011;5755;48.116;11.608;2022-12-29T00:35:23;1.77;;;1.40;;
11398;SDS011;5755;48.116;11.608;2022-12-29T00:37:53;1.23;;;1.13;;
11398;SDS011;5755;48.116;11.608;2022-12-29T00:40:40;1.43;;;1.20;;
11398;SDS011;5755;48.116;11.608;2022-12-29T00:43:24;2.07;;;1.27;;
11398;SDS011;5755;48.116;11.608;2022-12-29T00:46:09;1.67;;;1.33;;
11398;SDS011;5755;48.116;11.608;2022-12-29T00:48:35;1.30;;;1.20;;
11398;SDS011;5755;48.116;11.608;2022-12-29T00:51:20;1.47;;;1.37;;
11398;SDS011;5755;48.116;11.608;2022-12-29T00:53:48;2.30;;;1.10;;
11398;SDS011;5755;48.116;11.608;2022-12-29T00:56:15;1.40;;;1.30;;
11398;SDS011;5755;48.116;11.608;2022-12-29T00:58:42;1.90;;;1.37;;
11398;SDS011;5755;48.116;11.608;2022-12-29T01:01:08;2.53;;;1.50;;
11398;SDS011;5755;48.116;11.608;2022-12-29T01:03:36;1.73;;;1.23;;
11398;SDS011;5755;48.116;11.608;2022-12-29T01:06:04;1.30;;;1.20;;
11398;SDS011;5755;48.116;11.608;2022-12-29T01:08:33;2.00;;;1.20;;
11398;SDS011;5755;48.116;11.608;2022-12-29T01:11:02;2.10;;;1.40;;
11398;SDS011;5755;48.116;11.608;2022-12-29T01:13:29;1.60;;;1.30;;
11398;SDS011;5755;48.116;11.608;2022-12-29T01:15:56;1.40;;;1.23;;
11398;SDS011;5755;48.116;11.608;2022-12-29T01:18:23;1.40;;;1.20;;
11398;SDS011;5755;48.116;11.608;2022-12-29T01:20:51;1.37;;;1.27;;
11398;SDS011;5755;48.116;11.608;2022-12-29T01:23:24;1.67;;;1.40;;
11398;SDS011;5755;48.116;11.608;2022-12-29T01:25:51;2.60;;;1.37;;
11398;SDS011;5755;48.116;11.608;2022-12-29T01:28:19;1.97;;;1.53;;
11398;SDS011;5755;48.116;11.608;2022-12-29T01:30:46;1.70;;;1.27;;
11398;SDS011;5755;48.116;11.608;2022-12-29T01:33:13;1.83;;;1.23;;
11398;SDS011;5755;48.116;11.608;2022-12-29T01:35:40;2.50;;;1.37;;
11398;SDS011;5755;48.116;11.608;2022-12-29T01:38:07;1.27;;;1.13;;
11398;SDS011;5755;48.116;11.608;2022-12-29T01:40:34;1.50;;;1.40;;
11398;SDS011;5755;48.116;11.608;2022-12-29T01:43:10;1.37;;;1.27;;
11398;SDS011;5755;48.116;11.608;2022-12-29T01:45:39;1.30;;;1.10;;
11398;SDS011;5755;48.116;11.608;2022-12-29T01:48:10;1.30;;;1.20;;
11398;SDS011;5755;48.116;11.608;2022-12-29T01:50:38;2.20;;;1.37;;
11398;SDS011;5755;48.116;11.608;2022-12-29T01:53:08;1.50;;;1.40;;
11398;SDS011;5755;48.116;11.608;2022-12-29T01:55:37;3.17;;;1.13;;
11398;SDS011;5755;48.116;11.608;2022-12-29T01:58:08;2.93;;;1.20;;
11398;SDS011;5755;48.116;11.608;2022-12-29T02:00:39;2.00;;;1.30;;
11398;SDS011;5755;48.116;11.608;2022-12-29T02:03:06;1.90;;;1.30;;
11398;SDS011;5755;48.116;11.608;2022-12-29T02:05:36;1.53;;;1.40;;
11398;SDS011;5755;48.116;11.608;2022-12-29T02:08:07;1.50;;;1.40;;
11398;SDS011;5755;48.116;11.608;2022-12-29T02:10:35;1.47;;;1.30;;
11398;SDS011;5755;48.116;11.608;2022-12-29T02:13:02;2.03;;;1.40;;
11398;SDS011;5755;48.116;11.608;2022-12-29T02:15:32;1.57;;;1.40;;
11398;SDS011;5755;48.116;11.608;2022-12-29T02:18:22;1.83;;;1.20;;
11398;SDS011;5755;48.116;11.608;2022-12-29T02:24:16;1.33;;;1.17;;
11398;SDS011;5755;48.116;11.608;2022-12-29T02:30:05;3.47;;;1.20;;
11398;SDS011;5755;48.116;11.608;2022-12-29T02:32:41;1.73;;;1.50;;
11398;SDS011;5755;48.116;11.608;2022-12-29T02:35:20;1.77;;;1.33;;
11398;SDS011;5755;48.116;11.608;2022-12-29T02:37:58;1.50;;;1.23;;
11398;SDS011;5755;48.116;11.608;2022-12-29T02:40:35;1.90;;;1.40;;
11398;SDS011;5755;48.116;11.608;2022-12-29T02:43:08;2.83;;;1.20;;
11398;SDS011;5755;48.116;11.608;2022-12-29T02:45:45;1.33;;;1.23;;
11398;SDS011;5755;48.116;11.608;2022-12-29T02:48:18;1.40;;;1.30;;
11398;SDS011;5755;48.116;11.608;2022-12-29T02:50:51;1.37;;;1.27;;
11398;SDS011;5755;48.116;11.608;2022-12-29T02:53:22;1.70;;;1.27;;
11398;SDS011;5755;48.116;11.608;2022-12-29T02:56:04;1.00;;;1.00;;
11398;SDS011;5755;48.116;11.608;2022-12-29T02:58:31;1.10;;;1.00;;
11398;SDS011;5755;48.116;11.608;2022-12-29T03:01:02;1.50;;;1.10;;
11398;SDS011;5755;48.116;11.608;2022-12-29T03:03:43;0.90;;;0.90;;
11398;SDS011;5755;48.116;11.608;2022-12-29T03:06:22;1.03;;;1.00;;
11398;SDS011;5755;48.116;11.608;2022-12-29T03:08:59;1.57;;;1.10;;
11398;SDS011;5755;48.116;11.608;2022-12-29T03:11:37;2.10;;;0.87;;
11398;SDS011;5755;48.116;11.608;2022-12-29T03:14:29;1.10;;;0.80;;
11398;SDS011;5755;48.116;11.608;2022-12-29T03:17:18;1.10;;;1.00;;
11398;SDS011;5755;48.116;11.608;2022-12-29T03:19:54;1.00;;;0.73;;
11398;SDS011;5755;48.116;11.608;2022-12-29T03:22:31;1.30;;;1.20;;
11398;SDS011;5755;48.116;11.608;2022-12-29T03:25:03;1.10;;;1.00;;
11398;SDS011;5755;48.116;11.608;2022-12-29T03:27:36;1.10;;;1.00;;
11398;SDS011;5755;48.116;11.608;2022-12-29T03:30:07;0.90;;;0.90;;
11398;SDS011;5755;48.116;11.608;2022-12-29T03:32:36;1.20;;;1.10;;
11398;SDS011;5755;48.116;11.608;2022-12-29T03:35:09;2.13;;;1.93;;
11398;SDS011;5755;48.116;11.608;2022-12-29T03:37:40;1.10;;;1.00;;
11398;SDS011;5755;48.116;11.608;2022-12-29T03:40:10;0.80;;;0.80;;
11398;SDS011;5755;48.116;11.608;2022-12-29T03:42:37;0.93;;;0.93;;
11398;SDS011;5755;48.116;11.608;2022-12-29T03:45:07;0.97;;;0.97;;
11398;SDS011;5755;48.116;11.608;2022-12-29T03:47:35;1.20;;;0.90;;
11398;SDS011;5755;48.116;11.608;2022-12-29T03:50:02;2.30;;;0.80;;
11398;SDS011;5755;48.116;11.608;2022-12-29T03:52:30;1.57;;;0.97;;
11398;SDS011;5755;48.116;11.608;2022-12-29T03:54:57;0.80;;;0.80;;
11398;SDS011;5755;48.116;11.608;2022-12-29T03:57:24;2.27;;;0.93;;
11398;SDS011;5755;48.116;11.608;2022-12-29T03:59:51;0.80;;;0.80;;
11398;SDS011;5755;48.116;11.608;2022-12-29T04:02:20;1.00;;;1.00;;
11398;SDS011;5755;48.116;11.608;2022-12-29T04:04:48;1.25;;;1.00;;
11398;SDS011;5755;48.116;11.608;2022-12-29T04:07:15;1.03;;;0.80;;
11398;SDS011;5755;48.116;11.608;2022-12-29T04:09:43;1.05;;;0.95;;
11398;SDS011;5755;48.116;11.608;2022-12-29T04:12:10;1.00;;;0.90;;
11398;SDS011;5755;48.116;11.608;2022-12-29T04:14:38;0.83;;;0.80;;
11398;SDS011;5755;48.116;11.608;2022-12-29T04:17:05;1.00;;;0.90;;
11398;SDS011;5755;48.116;11.608;2022-12-29T04:19:32;4.10;;;1.13;;
11398;SDS011;5755;48.116;11.608;2022-12-29T04:21:59;1.00;;;1.00;;
11398;SDS011;5755;48.116;11.608;2022-12-29T04:24:25;1.23;;;1.05;;
11398;SDS011;5755;48.116;11.608;2022-12-29T04:26:54;0.90;;;0.90;;
11398;SDS011;5755;48.116;11.608;2022-12-29T04:29:20;2.30;;;1.00;;
11398;SDS011;5755;48.116;11.608;2022-12-29T04:31:47;1.00;;;0.90;;
11398;SDS011;5755;48.116;11.608;2022-12-29T04:34:14;1.10;;;1.00;;
11398;SDS011;5755;48.116;11.608;2022-12-29T04:36:41;1.17;;;1.08;;
11398;SDS011;5755;48.116;11.608;2022-12-29T04:39:08;2.03;;;1.08;;
11398;SDS011;5755;48.116;11.608;2022-12-29T04:41:35;1.17;;;1.00;;
11398;SDS011;5755;48.116;11.608;2022-12-29T04:44:03;0.90;;;0.90;;
11398;SDS011;5755;48.116;11.608;2022-12-29T04:46:30;1.30;;;1.20;;
11398;SDS011;5755;48.116;11.608;2022-12-29T04:48:57;1.45;;;1.15;;
11398;SDS011;5755;48.116;11.608;2022-12-29T04:51:25;1.33;;;1.13;;
11398;SDS011;5755;48.116;11.608;2022-12-29T04:53:52;1.30;;;1.10;;
11398;SDS011;5755;48.116;11.608;2022-12-29T04:56:19;1.35;;;1.20;;
11398;SDS011;5755;48.116;11.608;2022-12-29T04:58:46;2.28;;;1.13;;
11398;SDS011;5755;48.116;11.608;2022-12-29T05:01:14;1.20;;;1.10;;
11398;SDS011;5755;48.116;11.608;2022-12-29T05:03:41;1.00;;;1.00;;
11398;SDS011;5755;48.116;11.608;2022-12-29T05:06:08;1.00;;;0.98;;
11398;SDS011;5755;48.116;11.608;2022-12-29T05:08:35;1.10;;;1.00;;
11398;SDS011;5755;48.116;11.608;2022-12-29T05:11:02;1.10;;;1.00;;
11398;SDS011;5755;48.116;11.608;2022-12-29T05:13:28;1.50;;;1.00;;
11398;SDS011;5755;48.116;11.608;2022-12-29T05:15:55;2.03;;;0.90;;
11398;SDS011;5755;48.116;11.608;2022-12-29T05:18:23;1.05;;;1.00;;
11398;SDS011;5755;48.116;11.608;2022-12-29T05:20:50;0.85;;;0.85;;
11398;SDS011;5755;48.116;11.608;2022-12-29T05:23:17;1.20;;;1.10;;
11398;SDS011;5755;48.116;11.608;2022-12-29T05:25:44;0.95;;;0.95;;
11398;SDS011;5755;48.116;11.608;2022-12-29T05:28:11;1.15;;;1.00;;
11398;SDS011;5755;48.116;11.608;2022-12-29T05:30:38;1.88;;;1.10;;
11398;SDS011;5755;48.116;11.608;2022-12-29T05:33:05;1.20;;;1.10;;
11398;SDS011;5755;48.116;11.608;2022-12-29T05:35:33;1.10;;;0.95;;
11398;SDS011;5755;48.116;11.608;2022-12-29T05:38:00;1.63;;;1.30;;
11398;SDS011;5755;48.116;11.608;2022-12-29T05:40:27;2.17;;;1.00;;
11398;SDS011;5755;48.116;11.608;2022-12-29T05:42:53;1.10;;;1.00;;
11398;SDS011;5755;48.116;11.608;2022-12-29T05:45:20;1.30;;;1.20;;
11398;SDS011;5755;48.116;11.608;2022-12-29T05:47:47;2.08;;;1.23;;
11398;SDS011;5755;48.116;11.608;2022-12-29T05:50:14;1.48;;;1.30;;
11398;SDS011;5755;48.116;11.608;2022-12-29T05:52:42;1.42;;;1.33;;
11398;SDS011;5755;48.116;11.608;2022-12-29T05:55:09;1.80;;;1.30;;
11398;SDS011;5755;48.116;11.608;2022-12-29T05:57:36;1.00;;;1.00;;
11398;SDS011;5755;48.116;11.608;2022-12-29T06:00:04;1.00;;;1.00;;
11398;SDS011;5755;48.116;11.608;2022-12-29T06:02:31;1.10;;;1.00;;
11398;SDS011;5755;48.116;11.608;2022-12-29T06:04:58;0.93;;;0.93;;
11398;SDS011;5755;48.116;11.608;2022-12-29T06:07:25;6.13;;;1.30;;
11398;SDS011;5755;48.116;11.608;2022-12-29T06:09:53;3.33;;;1.20;;
11398;SDS011;5755;48.116;11.608;2022-12-29T06:12:20;1.40;;;1.20;;
11398;SDS011;5755;48.116;11.608;2022-12-29T06:14:47;1.67;;;1.25;;
11398;SDS011;5755;48.116;11.608;2022-12-29T06:17:14;1.80;;;1.20;;
11398;SDS011;5755;48.116;11.608;2022-12-29T06:19:40;3.55;;;1.17;;
11398;SDS011;5755;48.116;11.608;2022-12-29T06:22:09;1.27;;;1.17;;
11398;SDS011;5755;48.116;11.608;2022-12-29T06:24:39;1.95;;;1.30;;
11398;SDS011;5755;48.116;11.608;2022-12-29T06:27:07;1.58;;;1.17;;
11398;SDS011;5755;48.116;11.608;2022-12-29T06:29:34;1.50;;;1.30;;
11398;SDS011;5755;48.116;11.608;2022-12-29T06:32:02;1.48;;;1.27;;
11398;SDS011;5755;48.116;11.608;2022-12-29T06:34:29;1.35;;;1.25;;
11398;SDS011;5755;48.116;11.608;2022-12-29T06:36:56;1.65;;;1.33;;
11398;SDS011;5755;48.116;11.608;2022-12-29T06:39:24;2.85;;;1.40;;
11398;SDS011;5755;48.116;11.608;2022-12-29T06:41:51;1.33;;;1.23;;
11398;SDS011;5755;48.116;11.608;2022-12-29T06:44:20;1.77;;;1.40;;
11398;SDS011;5755;48.116;11.608;2022-12-29T06:46:47;6.35;;;1.13;;
11398;SDS011;5755;48.116;11.608;2022-12-29T06:49:15;2.47;;;1.30;;
11398;SDS011;5755;48.116;11.608;2022-12-29T06:51:41;1.48;;;1.23;;
11398;SDS011;5755;48.116;11.608;2022-12-29T06:54:08;3.25;;;1.30;;
11398;SDS011;5755;48.116;11.608;2022-12-29T06:56:35;1.77;;;1.40;;
11398;SDS011;5755;48.116;11.608;2022-12-29T06:59:02;1.48;;;1.38;;
11398;SDS011;5755;48.116;11.608;2022-12-29T07:01:31;2.53;;;1.45;;
11398;SDS011;5755;48.116;11.608;2022-12-29T07:03:58;1.50;;;1.25;;
11398;SDS011;5755;48.116;11.608;2022-12-29T07:06:25;2.22;;;1.52;;
11398;SDS011;5755;48.116;11.608;2022-12-29T07:08:52;1.77;;;1.67;;
11398;SDS011;5755;48.116;11.608;2022-12-29T07:11:20;4.03;;;1.83;;
11398;SDS011;5755;48.116;11.608;2022-12-29T07:13:47;1.25;;;1.15;;
11398;SDS011;5755;48.116;11.608;2022-12-29T07:16:14;3.17;;;1.42;;
11398;SDS011;5755;48.116;11.608;2022-12-29T07:18:43;1.40;;;1.25;;
11398;SDS011;5755;48.116;11.608;2022-12-29T07:21:10;1.65;;;1.30;;
11398;SDS011;5755;48.116;11.608;2022-12-29T07:23:36;1.63;;;1.52;;
11398;SDS011;5755;48.116;11.608;2022-12-29T07:26:04;1.25;;;1.15;;
11398;SDS011;5755;48.116;11.608;2022-12-29T07:28:32;2.45;;;1.50;;
11398;SDS011;5755;48.116;11.608;2022-12-29T07:31:01;1.75;;;1.30;;
11398;SDS011;5755;48.116;11.608;2022-12-29T07:33:28;1.70;;;1.42;;
11398;SDS011;5755;48.116;11.608;2022-12-29T07:35:57;2.00;;;1.40;;
11398;SDS011;5755;48.116;11.608;2022-12-29T07:38:24;1.85;;;1.70;;
11398;SDS011;5755;48.116;11.608;2022-12-29T07:40:51;2.10;;;1.40;;
11398;SDS011;5755;48.116;11.608;2022-12-29T07:43:22;1.40;;;1.30;;
11398;SDS011;5755;48.116;11.608;2022-12-29T07:45:49;1.42;;;1.23;;
11398;SDS011;5755;48.116;11.608;2022-12-29T07:48:15;4.68;;;1.58;;
11398;SDS011;5755;48.116;11.608;2022-12-29T07:50:42;1.90;;;1.38;;
11398;SDS011;5755;48.116;11.608;2022-12-29T07:53:11;1.80;;;1.35;;
11398;SDS011;5755;48.116;11.608;2022-12-29T07:55:37;1.83;;;1.50;;
11398;SDS011;5755;48.116;11.608;2022-12-29T07:58:04;1.50;;;1.40;;
11398;SDS011;5755;48.116;11.608;2022-12-29T08:00:31;1.40;;;1.23;;
11398;SDS011;5755;48.116;11.608;2022-12-29T08:02:59;1.50;;;1.40;;
11398;SDS011;5755;48.116;11.608;2022-12-29T08:05:28;5.60;;;1.55;;
11398;SDS011;5755;48.116;11.608;2022-12-29T08:07:56;1.30;;;1.20;;
11398;SDS011;5755;48.116;11.608;2022-12-29T08:10:25;3.22;;;1.25;;
11398;SDS011;5755;48.116;11.608;2022-12-29T08:12:52;1.52;;;1.20;;
11398;SDS011;5755;48.116;11.608;2022-12-29T08:15:18;2.65;;;1.20;;
11398;SDS011;5755;48.116;11.608;2022-12-29T08:17:45;1.83;;;1.40;;
11398;SDS011;5755;48.116;11.608;2022-12-29T08:20:12;1.23;;;1.13;;
11398;SDS011;5755;48.116;11.608;2022-12-29T08:22:39;1.30;;;1.20;;
11398;SDS011;5755;48.116;11.608;2022-12-29T08:25:07;1.50;;;1.40;;
11398;SDS011;5755;48.116;11.608;2022-12-29T08:27:35;2.63;;;1.40;;
11398;SDS011;5755;48.116;11.608;2022-12-29T08:30:02;2.40;;;1.65;;
11398;SDS011;5755;48.116;11.608;2022-12-29T08:32:30;1.55;;;1.45;;
11398;SDS011;5755;48.116;11.608;2022-12-29T08:34:56;1.60;;;1.48;;
11398;SDS011;5755;48.116;11.608;2022-12-29T08:37:23;1.33;;;1.23;;
11398;SDS011;5755;48.116;11.608;2022-12-29T08:39:50;1.40;;;1.30;;
11398;SDS011;5755;48.116;11.608;2022-12-29T08:42:17;1.52;;;1.30;;
11398;SDS011;5755;48.116;11.608;2022-12-29T08:44:45;1.40;;;1.30;;
11398;SDS011;5755;48.116;11.608;2022-12-29T08:47:12;1.25;;;1.15;;
11398;SDS011;5755;48.116;11.608;2022-12-29T08:49:39;2.10;;;1.30;;
11398;SDS011;5755;48.116;11.608;2022-12-29T08:52:07;2.13;;;1.40;;
11398;SDS011;5755;48.116;11.608;2022-12-29T08:54:34;2.13;;;1.60;;
11398;SDS011;5755;48.116;11.608;2022-12-29T08:57:01;1.83;;;1.35;;
11398;SDS011;5755;48.116;11.608;2022-12-29T08:59:28;1.50;;;1.40;;
11398;SDS011;5755;48.116;11.608;2022-12-29T09:02:03;1.77;;;1.30;;
11398;SDS011;5755;48.116;11.608;2022-12-29T09:04:30;2.47;;;1.38;;
11398;SDS011;5755;48.116;11.608;2022-12-29T09:06:57;3.90;;;1.67;;
11398;SDS011;5755;48.116;11.608;2022-12-29T09:09:24;1.92;;;1.30;;
11398;SDS011;5755;48.116;11.608;2022-12-29T09:11:50;1.98;;;1.60;;
11398;SDS011;5755;48.116;11.608;2022-12-29T09:14:17;1.90;;;1.50;;
11398;SDS011;5755;48.116;11.608;2022-12-29T09:16:44;1.90;;;1.70;;
11398;SDS011;5755;48.116;11.608;2022-12-29T09:19:30;1.50;;;1.40;;
11398;SDS011;5755;48.116;11.608;2022-12-29T09:21:57;1.70;;;1.60;;
11398;SDS011;5755;48.116;11.608;2022-12-29T09:24:24;1.40;;;1.30;;
11398;SDS011;5755;48.116;11.608;2022-12-29T09:26:51;1.30;;;1.20;;
11398;SDS011;5755;48.116;11.608;2022-12-29T09:29:17;1.77;;;1.40;;
11398;SDS011;5755;48.116;11.608;2022-12-29T09:31:44;1.45;;;1.30;;
11398;SDS011;5755;48.116;11.608;2022-12-29T09:34:11;1.92;;;1.50;;
11398;SDS011;5755;48.116;11.608;2022-12-29T09:36:39;2.88;;;1.20;;
11398;SDS011;5755;48.116;11.608;2022-12-29T09:39:07;1.40;;;1.30;;
11398;SDS011;5755;48.116;11.608;2022-12-29T09:41:34;1.63;;;1.50;;
11398;SDS011;5755;48.116;11.608;2022-12-29T09:44:07;2.03;;;1.30;;
11398;SDS011;5755;48.116;11.608;2022-12-29T09:46:43;1.42;;;1.33;;
11398;SDS011;5755;48.116;11.608;2022-12-29T09:49:16;2.63;;;1.38;;
11398;SDS011;5755;48.116;11.608;2022-12-29T09:51:52;1.45;;;1.30;;
11398;SDS011;5755;48.116;11.608;2022-12-29T09:54:23;1.60;;;1.50;;
11398;SDS011;5755;48.116;11.608;2022-12-29T09:57:13;1.83;;;1.40;;
11398;SDS011;5755;48.116;11.608;2022-12-29T09:59:44;1.45;;;1.30;;
11398;SDS011;5755;48.116;11.608;2022-12-29T10:02:15;1.38;;;1.27;;
11398;SDS011;5755;48.116;11.608;2022-12-29T10:04:54;2.05;;;1.35;;
11398;SDS011;5755;48.116;11.608;2022-12-29T10:07:25;1.50;;;1.40;;
11398;SDS011;5755;48.116;11.608;2022-12-29T10:10:02;8.18;;;1.20;;
11398;SDS011;5755;48.116;11.608;2022-12-29T10:12:48;1.25;;;1.15;;
11398;SDS011;5755;48.116;11.608;2022-12-29T10:15:29;2.15;;;0.98;;
11398;SDS011;5755;48.116;11.608;2022-12-29T10:18:10;1.38;;;1.27;;
11398;SDS011;5755;48.116;11.608;2022-12-29T10:20:48;1.40;;;1.08;;
11398;SDS011;5755;48.116;11.608;2022-12-29T10:23:24;1.30;;;1.20;;
11398;SDS011;5755;48.116;11.608;2022-12-29T10:25:54;1.10;;;1.05;;
11398;SDS011;5755;48.116;11.608;2022-12-29T10:28:23;2.63;;;1.20;;
11398;SDS011;5755;48.116;11.608;2022-12-29T10:30:55;2.13;;;1.40;;
11398;SDS011;5755;48.116;11.608;2022-12-29T10:33:26;2.25;;;1.23;;
11398;SDS011;5755;48.116;11.608;2022-12-29T10:35:58;1.77;;;1.45;;
11398;SDS011;5755;48.116;11.608;2022-12-29T10:38:33;1.40;;;1.30;;
11398;SDS011;5755;48.116;11.608;2022-12-29T10:41:05;1.30;;;1.20;;
11398;SDS011;5755;48.116;11.608;2022-12-29T10:43:41;1.25;;;1.15;;
11398;SDS011;5755;48.116;11.608;2022-12-29T10:46:12;1.48;;;1.20;;
11398;SDS011;5755;48.116;11.608;2022-12-29T10:48:42;1.70;;;1.40;;
11398;SDS011;5755;48.116;11.608;2022-12-29T10:51:13;1.85;;;1.30;;
11398;SDS011;5755;48.116;11.608;2022-12-29T10:53:48;2.42;;;1.20;;
11398;SDS011;5755;48.116;11.608;2022-12-29T10:56:21;1.55;;;1.45;;
11398;SDS011;5755;48.116;11.608;2022-12-29T10:58:58;3.75;;;1.23;;
11398;SDS011;5755;48.116;11.608;2022-12-29T11:01:34;4.50;;;1.50;;
11398;SDS011;5755;48.116;11.608;2022-12-29T11:04:07;4.32;;;1.30;;
11398;SDS011;5755;48.116;11.608;2022-12-29T11:06:49;1.75;;;1.30;;
11398;SDS011;5755;48.116;11.608;2022-12-29T11:09:19;1.75;;;1.40;;
11398;SDS011;5755;48.116;11.608;2022-12-29T11:11:52;2.00;;;1.40;;
11398;SDS011;5755;48.116;11.608;2022-12-29T11:14:25;1.58;;;1.30;;
11398;SDS011;5755;48.116;11.608;2022-12-29T11:16:58;1.50;;;1.40;;
11398;SDS011;5755;48.116;11.608;2022-12-29T11:19:28;1.73;;;1.35;;
11398;SDS011;5755;48.116;11.608;2022-12-29T11:22:01;2.35;;;1.40;;
11398;SDS011;5755;48.116;11.608;2022-12-29T11:24:44;1.92;;;1.35;;
11398;SDS011;5755;48.116;11.608;2022-12-29T11:27:26;1.23;;;1.10;;
11398;SDS011;5755;48.116;11.608;2022-12-29T11:29:53;1.63;;;1.40;;
11398;SDS011;5755;48.116;11.608;2022-12-29T11:32:22;1.40;;;1.25;;
11398;SDS011;5755;48.116;11.608;2022-12-29T11:35:02;3.28;;;1.20;;
11398;SDS011;5755;48.116;11.608;2022-12-29T11:37:31;1.23;;;1.13;;
11398;SDS011;5755;48.116;11.608;2022-12-29T11:40:10;1.75;;;1.40;;
11398;SDS011;5755;48.116;11.608;2022-12-29T11:42:47;1.50;;;1.20;;
11398;SDS011;5755;48.116;11.608;2022-12-29T11:45:20;1.73;;;1.45;;
11398;SDS011;5755;48.116;11.608;2022-12-29T11:47:49;2.08;;;1.25;;
11398;SDS011;5755;48.116;11.608;2022-12-29T11:50:19;1.50;;;1.40;;
11398;SDS011;5755;48.116;11.608;2022-12-29T11:52:48;2.05;;;1.30;;
11398;SDS011;5755;48.116;11.608;2022-12-29T11:55:25;3.28;;;1.30;;
11398;SDS011;5755;48.116;11.608;2022-12-29T11:57:53;2.58;;;1.23;;
11398;SDS011;5755;48.116;11.608;2022-12-29T12:00:24;1.30;;;1.20;;
11398;SDS011;5755;48.116;11.608;2022-12-29T12:02:53;1.48;;;1.30;;
11398;SDS011;5755;48.116;11.608;2022-12-29T12:05:26;1.42;;;1.33;;
11398;SDS011;5755;48.116;11.608;2022-12-29T12:08:00;1.98;;;1.38;;
11398;SDS011;5755;48.116;11.608;2022-12-29T12:16:47;1.30;;;1.20;;
11398;SDS011;5755;48.116;11.608;2022-12-29T12:19:34;1.20;;;1.10;;
11398;SDS011;5755;48.116;11.608;2022-12-29T12:22:10;1.30;;;1.13;;
11398;SDS011;5755;48.116;11.608;2022-12-29T12:25:08;1.23;;;1.13;;
11398;SDS011;5755;48.116;11.608;2022-12-29T12:28:09;1.70;;;1.40;;
11398;SDS011;5755;48.116;11.608;2022-12-29T12:30:44;1.77;;;1.25;;
11398;SDS011;5755;48.116;11.608;2022-12-29T12:33:16;2.95;;;1.40;;
11398;SDS011;5755;48.116;11.608;2022-12-29T12:35:52;1.38;;;1.27;;
11398;SDS011;5755;48.116;11.608;2022-12-29T12:38:31;1.50;;;1.40;;
11398;SDS011;5755;48.116;11.608;2022-12-29T12:41:08;1.88;;;1.30;;
11398;SDS011;5755;48.116;11.608;2022-12-29T12:43:40;1.40;;;1.30;;
11398;SDS011;5755;48.116;11.608;2022-12-29T12:46:23;2.92;;;1.40;;
11398;SDS011;5755;48.116;11.608;2022-12-29T12:52:12;1.58;;;1.33;;
11398;SDS011;5755;48.116;11.608;2022-12-29T12:54:53;1.80;;;1.30;;
11398;SDS011;5755;48.116;11.608;2022-12-29T12:57:38;2.40;;;1.27;;
11398;SDS011;5755;48.116;11.608;2022-12-29T13:00:14;1.55;;;1.42;;
11398;SDS011;5755;48.116;11.608;2022-12-29T13:02:50;1.40;;;1.30;;
11398;SDS011;5755;48.116;11.608;2022-12-29T13:05:32;2.55;;;1.20;;
11398;SDS011;5755;48.116;11.608;2022-12-29T13:11:17;2.80;;;1.50;;
11398;SDS011;5755;48.116;11.608;2022-12-29T13:13:55;1.30;;;1.20;;
11398;SDS011;5755;48.116;11.608;2022-12-29T13:16:36;1.58;;;1.20;;
11398;SDS011;5755;48.116;11.608;2022-12-29T13:19:13;1.70;;;1.20;;
11398;SDS011;5755;48.116;11.608;2022-12-29T13:21:53;2.50;;;1.50;;
11398;SDS011;5755;48.116;11.608;2022-12-29T13:24:29;2.35;;;1.35;;
11398;SDS011;5755;48.116;11.608;2022-12-29T13:27:02;1.30;;;1.20;;
11398;SDS011;5755;48.116;11.608;2022-12-29T13:29:39;1.40;;;1.23;;
11398;SDS011;5755;48.116;11.608;2022-12-29T13:32:20;2.40;;;1.10;;
11398;SDS011;5755;48.116;11.608;2022-12-29T13:34:59;2.40;;;1.40;;
11398;SDS011;5755;48.116;11.608;2022-12-29T13:37:40;1.92;;;1.50;;
11398;SDS011;5755;48.116;11.608;2022-12-29T13:40:13;1.50;;;1.30;;
11398;SDS011;5755;48.116;11.608;2022-12-29T13:42:42;1.38;;;1.27;;
11398;SDS011;5755;48.116;11.608;2022-12-29T13:45:13;1.92;;;1.30;;
11398;SDS011;5755;48.116;11.608;2022-12-29T13:47:47;1.50;;;1.40;;
11398;SDS011;5755;48.116;11.608;2022-12-29T13:50:23;2.47;;;1.60;;
11398;SDS011;5755;48.116;11.608;2022-12-29T13:52:55;1.58;;;1.40;;
11398;SDS011;5755;48.116;11.608;2022-12-29T13:55:29;2.88;;;1.27;;
11398;SDS011;5755;48.116;11.608;2022-12-29T13:58:03;2.00;;;1.50;;
11398;SDS011;5755;48.116;11.608;2022-12-29T14:00:43;2.83;;;1.60;;
11398;SDS011;5755;48.116;11.608;2022-12-29T14:03:27;2.63;;;1.63;;
11398;SDS011;5755;48.116;11.608;2022-12-29T14:06:30;3.38;;;1.73;;
11398;SDS011;5755;48.116;11.608;2022-12-29T14:09:05;2.65;;;1.60;;
11398;SDS011;5755;48.116;11.608;2022-12-29T14:11:52;5.93;;;1.60;;
11398;SDS011;5755;48.116;11.608;2022-12-29T14:14:20;2.38;;;1.50;;
11398;SDS011;5755;48.116;11.608;2022-12-29T14:16:49;2.05;;;1.65;;
11398;SDS011;5755;48.116;11.608;2022-12-29T14:19:19;2.85;;;1.45;;
11398;SDS011;5755;48.116;11.608;2022-12-29T14:21:50;2.63;;;1.70;;
11398;SDS011;5755;48.116;11.608;2022-12-29T14:24:38;1.80;;;1.40;;
11398;SDS011;5755;48.116;11.608;2022-12-29T14:33:26;1.80;;;1.70;;
11398;SDS011;5755;48.116;11.608;2022-12-29T14:35:57;1.70;;;1.40;;
11398;SDS011;5755;48.116;11.608;2022-12-29T14:38:47;1.88;;;1.60;;
11398;SDS011;5755;48.116;11.608;2022-12-29T14:41:15;3.17;;;1.70;;
11398;SDS011;5755;48.116;11.608;2022-12-29T14:43:54;1.70;;;1.55;;
11398;SDS011;5755;48.116;11.608;2022-12-29T14:46:46;1.70;;;1.60;;
11398;SDS011;5755;48.116;11.608;2022-12-29T14:49:22;1.50;;;1.33;;
11398;SDS011;5755;48.116;11.608;2022-12-29T14:51:53;1.65;;;1.55;;
11398;SDS011;5755;48.116;11.608;2022-12-29T14:54:34;2.92;;;1.55;;
11398;SDS011;5755;48.116;11.608;2022-12-29T14:57:13;1.77;;;1.60;;
11398;SDS011;5755;48.116;11.608;2022-12-29T14:59:48;2.47;;;2.13;;
11398;SDS011;5755;48.116;11.608;2022-12-29T15:02:35;2.30;;;1.92;;
11398;SDS011;5755;48.116;11.608;2022-12-29T15:05:10;3.15;;;1.90;;
11398;SDS011;5755;48.116;11.608;2022-12-29T15:07:58;1.90;;;1.80;;
11398;SDS011;5755;48.116;11.608;2022-12-29T15:10:32;3.00;;;2.15;;
11398;SDS011;5755;48.116;11.608;2022-12-29T15:13:05;2.10;;;1.90;;
11398;SDS011;5755;48.116;11.608;2022-12-29T15:15:40;2.97;;;1.98;;
11398;SDS011;5755;48.116;11.608;2022-12-29T15:18:12;2.33;;;2.00;;
11398;SDS011;5755;48.116;11.608;2022-12-29T15:20:41;4.07;;;1.90;;
11398;SDS011;5755;48.116;11.608;2022-12-29T15:23:10;2.60;;;2.10;;
11398;SDS011;5755;48.116;11.608;2022-12-29T15:25:45;3.05;;;1.95;;
11398;SDS011;5755;48.116;11.608;2022-12-29T15:28:16;3.90;;;2.15;;
11398;SDS011;5755;48.116;11.608;2022-12-29T15:30:53;2.35;;;2.00;;
11398;SDS011;5755;48.116;11.608;2022-12-29T15:33:21;2.58;;;1.65;;
11398;SDS011;5755;48.116;11.608;2022-12-29T15:35:49;2.45;;;1.75;;
11398;SDS011;5755;48.116;11.608;2022-12-29T15:38:22;4.68;;;1.80;;
11398;SDS011;5755;48.116;11.608;2022-12-29T15:40:52;4.65;;;2.20;;